sensor_id;sensor_type;location;lat;lon;timestamp;temperature;humidity
3770;DHT22;1900;48.890;9.190;2023-06-26T00:02:18;28.80;35.30
3770;DHT22;1900;48.890;9.190;2023-06-26T00:04:44;28.70;35.20
3770;DHT22;1900;48.890;9.190;2023-06-26T00:07:10;28.70;35.30
3770;DHT22;1900;48.890;9.190;2023-06-26T00:09:36;28.60;35.30
3770;DHT22;1900;48.890;9.190;2023-06-26T00:12:02;28.60;35.30
3770;DHT22;1900;48.890;9.190;2023-06-26T00:14:29;28.50;35.90
3770;DHT22;1900;48.890;9.190;2023-06-26T00:16:55;28.50;35.50
3770;DHT22;1900;48.890;9.190;2023-06-26T00:19:21;28.50;35.50
3770;DHT22;1900;48.890;9.190;2023-06-26T00:21:46;28.40;35.40
3770;DHT22;1900;48.890;9.190;2023-06-26T00:24:16;28.40;35.50
3770;DHT22;1900;48.890;9.190;2023-06-26T00:26:43;28.40;35.70
3770;DHT22;1900;48.890;9.190;2023-06-26T00:29:08;28.30;35.60
3770;DHT22;1900;48.890;9.190;2023-06-26T00:31:34;28.30;35.60
3770;DHT22;1900;48.890;9.190;2023-06-26T00:34:08;28.30;36.20
3770;DHT22;1900;48.890;9.190;2023-06-26T00:36:34;28.30;35.80
3770;DHT22;1900;48.890;9.190;2023-06-26T00:38:59;28.30;35.80
3770;DHT22;1900;48.890;9.190;2023-06-26T00:41:26;28.30;35.90
3770;DHT22;1900;48.890;9.190;2023-06-26T00:43:52;28.20;35.80
3770;DHT22;1900;48.890;9.190;2023-06-26T00:46:18;28.20;35.90
3770;DHT22;1900;48.890;9.190;2023-06-26T00:48:44;28.20;35.90
3770;DHT22;1900;48.890;9.190;2023-06-26T00:51:11;28.10;35.80
3770;DHT22;1900;48.890;9.190;2023-06-26T00:53:37;28.10;35.90
3770;DHT22;1900;48.890;9.190;2023-06-26T00:56:03;28.10;35.90
3770;DHT22;1900;48.890;9.190;2023-06-26T00:58:30;28.00;35.90
3770;DHT22;1900;48.890;9.190;2023-06-26T01:00:57;28.00;35.90
3770;DHT22;1900;48.890;9.190;2023-06-26T01:03:24;27.90;35.80
3770;DHT22;1900;48.890;9.190;2023-06-26T01:05:55;27.90;35.90
3770;DHT22;1900;48.890;9.190;2023-06-26T01:08:22;27.90;36.00
3770;DHT22;1900;48.890;9.190;2023-06-26T01:10:48;27.90;35.90
3770;DHT22;1900;48.890;9.190;2023-06-26T01:13:15;27.80;35.90
3770;DHT22;1900;48.890;9.190;2023-06-26T01:15:41;27.80;35.90
3770;DHT22;1900;48.890;9.190;2023-06-26T01:18:07;27.80;36.00
3770;DHT22;1900;48.890;9.190;2023-06-26T01:20:37;27.70;35.90
3770;DHT22;1900;48.890;9.190;2023-06-26T01:26:15;27.70;36.10
3770;DHT22;1900;48.890;9.190;2023-06-26T01:28:43;27.60;36.10
3770;DHT22;1900;48.890;9.190;2023-06-26T01:31:14;27.60;36.20
3770;DHT22;1900;48.890;9.190;2023-06-26T01:33:41;27.50;36.10
3770;DHT22;1900;48.890;9.190;2023-06-26T01:36:07;27.50;36.00
3770;DHT22;1900;48.890;9.190;2023-06-26T01:38:35;27.50;36.10
3770;DHT22;1900;48.890;9.190;2023-06-26T01:41:00;27.50;36.10
3770;DHT22;1900;48.890;9.190;2023-06-26T01:46:33;27.40;36.30
3770;DHT22;1900;48.890;9.190;2023-06-26T01:55:15;27.30;36.30
3770;DHT22;1900;48.890;9.190;2023-06-26T01:57:42;27.20;36.30
3770;DHT22;1900;48.890;9.190;2023-06-26T02:00:09;27.10;36.20
3770;DHT22;1900;48.890;9.190;2023-06-26T02:02:41;27.10;36.30
3770;DHT22;1900;48.890;9.190;2023-06-26T02:05:08;27.10;36.40
3770;DHT22;1900;48.890;9.190;2023-06-26T02:07:33;27.10;36.40
3770;DHT22;1900;48.890;9.190;2023-06-26T02:10:02;27.10;36.50
3770;DHT22;1900;48.890;9.190;2023-06-26T02:12:28;27.00;36.40
3770;DHT22;1900;48.890;9.190;2023-06-26T02:14:54;27.00;36.50
3770;DHT22;1900;48.890;9.190;2023-06-26T02:17:23;27.10;36.60
3770;DHT22;1900;48.890;9.190;2023-06-26T02:19:48;27.10;36.70
3770;DHT22;1900;48.890;9.190;2023-06-26T02:22:15;27.10;36.80
3770;DHT22;1900;48.890;9.190;2023-06-26T02:24:41;27.00;36.70
3770;DHT22;1900;48.890;9.190;2023-06-26T02:27:07;27.00;36.70
3770;DHT22;1900;48.890;9.190;2023-06-26T02:29:35;27.00;36.80
3770;DHT22;1900;48.890;9.190;2023-06-26T02:32:01;27.00;36.80
3770;DHT22;1900;48.890;9.190;2023-06-26T02:34:27;27.00;36.90
3770;DHT22;1900;48.890;9.190;2023-06-26T02:36:53;27.00;36.90
3770;DHT22;1900;48.890;9.190;2023-06-26T02:39:22;27.00;36.90
3770;DHT22;1900;48.890;9.190;2023-06-26T02:41:48;27.00;36.90
3770;DHT22;1900;48.890;9.190;2023-06-26T02:44:15;27.00;37.00
3770;DHT22;1900;48.890;9.190;2023-06-26T02:46:40;27.00;37.00
3770;DHT22;1900;48.890;9.190;2023-06-26T02:49:07;27.00;37.60
3770;DHT22;1900;48.890;9.190;2023-06-26T02:51:34;27.00;37.00
3770;DHT22;1900;48.890;9.190;2023-06-26T02:54:02;27.00;37.00
3770;DHT22;1900;48.890;9.190;2023-06-26T02:56:29;27.00;37.10
3770;DHT22;1900;48.890;9.190;2023-06-26T02:58:55;26.90;37.00
3770;DHT22;1900;48.890;9.190;2023-06-26T03:01:22;26.90;37.00
3770;DHT22;1900;48.890;9.190;2023-06-26T03:03:48;26.90;37.10
3770;DHT22;1900;48.890;9.190;2023-06-26T03:06:16;26.90;37.10
3770;DHT22;1900;48.890;9.190;2023-06-26T03:08:43;26.90;37.10
3770;DHT22;1900;48.890;9.190;2023-06-26T03:11:09;26.80;37.10
3770;DHT22;1900;48.890;9.190;2023-06-26T03:13:36;26.80;37.10
3770;DHT22;1900;48.890;9.190;2023-06-26T03:16:03;26.80;37.20
3770;DHT22;1900;48.890;9.190;2023-06-26T03:18:29;26.80;37.20
3770;DHT22;1900;48.890;9.190;2023-06-26T03:20:56;26.80;37.20
3770;DHT22;1900;48.890;9.190;2023-06-26T03:23:22;26.80;37.30
3770;DHT22;1900;48.890;9.190;2023-06-26T03:25:49;26.80;37.30
3770;DHT22;1900;48.890;9.190;2023-06-26T03:28:22;26.70;37.20
3770;DHT22;1900;48.890;9.190;2023-06-26T03:30:48;26.70;37.30
3770;DHT22;1900;48.890;9.190;2023-06-26T03:33:14;26.70;37.30
3770;DHT22;1900;48.890;9.190;2023-06-26T03:35:41;26.70;37.30
3770;DHT22;1900;48.890;9.190;2023-06-26T03:38:08;26.60;37.30
3770;DHT22;1900;48.890;9.190;2023-06-26T03:40:34;26.70;37.40
3770;DHT22;1900;48.890;9.190;2023-06-26T03:43:01;26.60;37.30
3770;DHT22;1900;48.890;9.190;2023-06-26T03:45:30;26.60;37.40
3770;DHT22;1900;48.890;9.190;2023-06-26T03:47:56;26.60;37.40
3770;DHT22;1900;48.890;9.190;2023-06-26T03:50:21;26.50;37.40
3770;DHT22;1900;48.890;9.190;2023-06-26T03:52:47;26.50;37.40
3770;DHT22;1900;48.890;9.190;2023-06-26T03:55:13;26.50;37.50
3770;DHT22;1900;48.890;9.190;2023-06-26T03:57:39;26.50;37.50
3770;DHT22;1900;48.890;9.190;2023-06-26T04:00:05;26.40;37.50
3770;DHT22;1900;48.890;9.190;2023-06-26T04:02:40;26.40;37.60
3770;DHT22;1900;48.890;9.190;2023-06-26T04:05:06;26.40;37.60
3770;DHT22;1900;48.890;9.190;2023-06-26T04:07:33;26.40;37.70
3770;DHT22;1900;48.890;9.190;2023-06-26T04:10:00;26.40;37.70
3770;DHT22;1900;48.890;9.190;2023-06-26T04:12:26;26.40;37.80
3770;DHT22;1900;48.890;9.190;2023-06-26T04:14:52;26.40;37.80
3770;DHT22;1900;48.890;9.190;2023-06-26T04:17:17;26.40;37.90
3770;DHT22;1900;48.890;9.190;2023-06-26T04:19:43;26.40;38.60
3770;DHT22;1900;48.890;9.190;2023-06-26T04:22:09;26.40;38.00
3770;DHT22;1900;48.890;9.190;2023-06-26T04:24:35;26.40;38.00
3770;DHT22;1900;48.890;9.190;2023-06-26T04:27:00;26.40;38.10
3770;DHT22;1900;48.890;9.190;2023-06-26T04:29:26;26.40;38.20
3770;DHT22;1900;48.890;9.190;2023-06-26T04:31:53;26.40;38.20
3770;DHT22;1900;48.890;9.190;2023-06-26T04:34:28;26.40;38.30
3770;DHT22;1900;48.890;9.190;2023-06-26T04:36:54;26.40;38.40
3770;DHT22;1900;48.890;9.190;2023-06-26T04:39:20;26.40;38.30
3770;DHT22;1900;48.890;9.190;2023-06-26T04:41:46;26.40;38.30
3770;DHT22;1900;48.890;9.190;2023-06-26T04:44:12;26.50;38.50
3770;DHT22;1900;48.890;9.190;2023-06-26T04:46:38;26.50;38.50
3770;DHT22;1900;48.890;9.190;2023-06-26T04:49:08;26.50;38.50
3770;DHT22;1900;48.890;9.190;2023-06-26T04:51:34;26.50;38.60
3770;DHT22;1900;48.890;9.190;2023-06-26T04:54:07;26.50;38.60
3770;DHT22;1900;48.890;9.190;2023-06-26T04:56:33;26.50;38.70
3770;DHT22;1900;48.890;9.190;2023-06-26T04:58:59;26.50;38.60
3770;DHT22;1900;48.890;9.190;2023-06-26T05:01:24;26.50;38.70
3770;DHT22;1900;48.890;9.190;2023-06-26T05:03:50;26.60;38.70
3770;DHT22;1900;48.890;9.190;2023-06-26T05:06:16;26.60;38.70
3770;DHT22;1900;48.890;9.190;2023-06-26T05:08:41;26.60;38.70
3770;DHT22;1900;48.890;9.190;2023-06-26T05:11:07;26.60;38.70
3770;DHT22;1900;48.890;9.190;2023-06-26T05:13:33;26.60;38.80
3770;DHT22;1900;48.890;9.190;2023-06-26T05:15:58;26.60;38.80
3770;DHT22;1900;48.890;9.190;2023-06-26T05:18:24;26.60;38.80
3770;DHT22;1900;48.890;9.190;2023-06-26T05:20:50;26.60;38.90
3770;DHT22;1900;48.890;9.190;2023-06-26T05:23:16;26.60;39.00
3770;DHT22;1900;48.890;9.190;2023-06-26T05:25:42;26.60;39.00
3770;DHT22;1900;48.890;9.190;2023-06-26T05:28:08;26.60;39.00
3770;DHT22;1900;48.890;9.190;2023-06-26T05:30:36;26.60;39.10
3770;DHT22;1900;48.890;9.190;2023-06-26T05:33:03;26.70;39.20
3770;DHT22;1900;48.890;9.190;2023-06-26T05:35:29;26.70;39.30
3770;DHT22;1900;48.890;9.190;2023-06-26T05:37:56;26.70;39.30
3770;DHT22;1900;48.890;9.190;2023-06-26T05:40:22;26.70;39.30
3770;DHT22;1900;48.890;9.190;2023-06-26T05:42:49;26.70;39.30
3770;DHT22;1900;48.890;9.190;2023-06-26T05:45:15;26.80;39.40
3770;DHT22;1900;48.890;9.190;2023-06-26T05:47:41;26.80;39.50
3770;DHT22;1900;48.890;9.190;2023-06-26T05:50:08;26.80;39.50
3770;DHT22;1900;48.890;9.190;2023-06-26T05:52:34;26.80;39.70
3770;DHT22;1900;48.890;9.190;2023-06-26T05:55:01;26.90;39.80
3770;DHT22;1900;48.890;9.190;2023-06-26T05:57:27;26.90;39.80
3770;DHT22;1900;48.890;9.190;2023-06-26T05:59:54;27.00;40.00
3770;DHT22;1900;48.890;9.190;2023-06-26T06:02:20;27.00;40.00
3770;DHT22;1900;48.890;9.190;2023-06-26T06:04:46;27.00;40.00
3770;DHT22;1900;48.890;9.190;2023-06-26T06:07:11;27.00;40.00
3770;DHT22;1900;48.890;9.190;2023-06-26T06:09:37;27.10;40.00
3770;DHT22;1900;48.890;9.190;2023-06-26T06:12:04;27.10;40.00
3770;DHT22;1900;48.890;9.190;2023-06-26T06:14:34;27.10;40.20
3770;DHT22;1900;48.890;9.190;2023-06-26T06:17:00;27.10;40.10
3770;DHT22;1900;48.890;9.190;2023-06-26T06:19:25;27.20;40.20
3770;DHT22;1900;48.890;9.190;2023-06-26T06:21:52;27.20;40.20
3770;DHT22;1900;48.890;9.190;2023-06-26T06:24:18;27.20;40.30
3770;DHT22;1900;48.890;9.190;2023-06-26T06:26:44;27.20;40.20
3770;DHT22;1900;48.890;9.190;2023-06-26T06:29:09;27.30;40.50
3770;DHT22;1900;48.890;9.190;2023-06-26T06:31:35;27.30;40.40
3770;DHT22;1900;48.890;9.190;2023-06-26T06:34:01;27.30;40.40
3770;DHT22;1900;48.890;9.190;2023-06-26T06:36:27;27.30;40.40
3770;DHT22;1900;48.890;9.190;2023-06-26T06:38:52;27.30;40.50
3770;DHT22;1900;48.890;9.190;2023-06-26T06:41:19;27.40;40.60
3770;DHT22;1900;48.890;9.190;2023-06-26T06:43:45;27.40;40.60
3770;DHT22;1900;48.890;9.190;2023-06-26T06:46:10;27.40;40.60
3770;DHT22;1900;48.890;9.190;2023-06-26T06:48:36;27.50;40.80
3770;DHT22;1900;48.890;9.190;2023-06-26T06:51:02;27.50;40.80
3770;DHT22;1900;48.890;9.190;2023-06-26T06:53:27;27.50;40.80
3770;DHT22;1900;48.890;9.190;2023-06-26T06:55:53;27.60;41.00
3770;DHT22;1900;48.890;9.190;2023-06-26T06:58:19;27.60;41.00
3770;DHT22;1900;48.890;9.190;2023-06-26T07:00:45;27.70;41.10
3770;DHT22;1900;48.890;9.190;2023-06-26T07:03:11;27.80;41.20
3770;DHT22;1900;48.890;9.190;2023-06-26T07:05:37;27.90;41.30
3770;DHT22;1900;48.890;9.190;2023-06-26T07:08:03;27.90;41.40
3770;DHT22;1900;48.890;9.190;2023-06-26T07:10:29;28.00;41.50
3770;DHT22;1900;48.890;9.190;2023-06-26T07:12:55;28.10;41.60
3770;DHT22;1900;48.890;9.190;2023-06-26T07:15:21;28.20;41.70
3770;DHT22;1900;48.890;9.190;2023-06-26T07:17:47;28.20;41.70
3770;DHT22;1900;48.890;9.190;2023-06-26T07:20:12;28.30;41.70
3770;DHT22;1900;48.890;9.190;2023-06-26T07:22:42;28.40;41.80
3770;DHT22;1900;48.890;9.190;2023-06-26T07:25:08;28.50;41.80
3770;DHT22;1900;48.890;9.190;2023-06-26T07:27:35;28.60;41.80
3770;DHT22;1900;48.890;9.190;2023-06-26T07:30:02;28.60;41.80
3770;DHT22;1900;48.890;9.190;2023-06-26T07:32:28;28.70;41.90
3770;DHT22;1900;48.890;9.190;2023-06-26T07:34:53;28.80;42.10
3770;DHT22;1900;48.890;9.190;2023-06-26T07:37:19;28.90;42.20
3770;DHT22;1900;48.890;9.190;2023-06-26T07:39:45;28.90;42.20
3770;DHT22;1900;48.890;9.190;2023-06-26T07:42:10;29.10;42.30
3770;DHT22;1900;48.890;9.190;2023-06-26T07:44:36;29.10;42.30
3770;DHT22;1900;48.890;9.190;2023-06-26T07:47:02;29.30;42.30
3770;DHT22;1900;48.890;9.190;2023-06-26T07:49:28;29.30;42.30
3770;DHT22;1900;48.890;9.190;2023-06-26T07:51:53;29.40;42.30
3770;DHT22;1900;48.890;9.190;2023-06-26T07:54:19;29.50;42.30
3770;DHT22;1900;48.890;9.190;2023-06-26T07:56:55;29.60;42.50
3770;DHT22;1900;48.890;9.190;2023-06-26T07:59:21;29.70;42.50
3770;DHT22;1900;48.890;9.190;2023-06-26T08:01:47;29.80;42.60
3770;DHT22;1900;48.890;9.190;2023-06-26T08:04:13;29.90;42.80
3770;DHT22;1900;48.890;9.190;2023-06-26T08:06:39;30.00;42.80
3770;DHT22;1900;48.890;9.190;2023-06-26T08:09:06;30.20;42.90
3770;DHT22;1900;48.890;9.190;2023-06-26T08:11:33;30.30;42.90
3770;DHT22;1900;48.890;9.190;2023-06-26T08:13:59;30.40;42.80
3770;DHT22;1900;48.890;9.190;2023-06-26T08:16:25;30.50;42.90
3770;DHT22;1900;48.890;9.190;2023-06-26T08:18:51;30.60;42.90
3770;DHT22;1900;48.890;9.190;2023-06-26T08:21:17;30.70;42.90
3770;DHT22;1900;48.890;9.190;2023-06-26T08:23:42;30.80;42.90
3770;DHT22;1900;48.890;9.190;2023-06-26T08:26:08;30.90;43.00
3770;DHT22;1900;48.890;9.190;2023-06-26T08:28:34;31.00;43.00
3770;DHT22;1900;48.890;9.190;2023-06-26T08:31:00;31.10;43.10
3770;DHT22;1900;48.890;9.190;2023-06-26T08:33:25;31.20;43.10
3770;DHT22;1900;48.890;9.190;2023-06-26T08:35:51;31.30;43.10
3770;DHT22;1900;48.890;9.190;2023-06-26T08:38:17;31.40;43.10
3770;DHT22;1900;48.890;9.190;2023-06-26T08:40:43;31.50;43.20
3770;DHT22;1900;48.890;9.190;2023-06-26T08:43:09;31.60;43.20
3770;DHT22;1900;48.890;9.190;2023-06-26T08:45:35;31.70;43.30
3770;DHT22;1900;48.890;9.190;2023-06-26T08:48:01;31.80;43.30
3770;DHT22;1900;48.890;9.190;2023-06-26T08:50:30;31.90;43.30
3770;DHT22;1900;48.890;9.190;2023-06-26T08:53:03;32.00;43.40
3770;DHT22;1900;48.890;9.190;2023-06-26T08:55:31;32.10;43.40
3770;DHT22;1900;48.890;9.190;2023-06-26T08:57:59;32.20;43.50
3770;DHT22;1900;48.890;9.190;2023-06-26T09:00:25;32.30;43.50
3770;DHT22;1900;48.890;9.190;2023-06-26T09:02:51;32.40;43.60
3770;DHT22;1900;48.890;9.190;2023-06-26T09:05:17;32.50;43.60
3770;DHT22;1900;48.890;9.190;2023-06-26T09:07:43;32.60;43.60
3770;DHT22;1900;48.890;9.190;2023-06-26T09:10:09;32.70;43.50
3770;DHT22;1900;48.890;9.190;2023-06-26T09:12:35;32.80;43.60
3770;DHT22;1900;48.890;9.190;2023-06-26T09:15:01;32.80;43.60
3770;DHT22;1900;48.890;9.190;2023-06-26T09:17:36;32.90;43.70
3770;DHT22;1900;48.890;9.190;2023-06-26T09:20:04;33.10;43.70
3770;DHT22;1900;48.890;9.190;2023-06-26T09:22:34;33.10;43.60
3770;DHT22;1900;48.890;9.190;2023-06-26T09:25:01;33.20;43.60
3770;DHT22;1900;48.890;9.190;2023-06-26T09:27:27;33.40;43.60
3770;DHT22;1900;48.890;9.190;2023-06-26T09:29:53;33.40;43.40
3770;DHT22;1900;48.890;9.190;2023-06-26T09:32:19;33.50;43.30
3770;DHT22;1900;48.890;9.190;2023-06-26T09:34:45;33.60;43.40
3770;DHT22;1900;48.890;9.190;2023-06-26T09:37:13;33.60;43.30
3770;DHT22;1900;48.890;9.190;2023-06-26T09:39:39;33.80;43.40
3770;DHT22;1900;48.890;9.190;2023-06-26T09:42:05;33.80;43.00
3770;DHT22;1900;48.890;9.190;2023-06-26T09:44:33;33.90;43.10
3770;DHT22;1900;48.890;9.190;2023-06-26T09:46:59;34.00;43.20
3770;DHT22;1900;48.890;9.190;2023-06-26T09:49:27;34.10;43.50
3770;DHT22;1900;48.890;9.190;2023-06-26T09:51:53;34.20;43.50
3770;DHT22;1900;48.890;9.190;2023-06-26T09:54:21;34.20;43.40
3770;DHT22;1900;48.890;9.190;2023-06-26T09:56:47;34.30;43.40
3770;DHT22;1900;48.890;9.190;2023-06-26T09:59:13;34.40;43.60
3770;DHT22;1900;48.890;9.190;2023-06-26T10:01:44;34.50;43.40
3770;DHT22;1900;48.890;9.190;2023-06-26T10:04:10;34.60;43.30
3770;DHT22;1900;48.890;9.190;2023-06-26T10:06:41;34.70;43.40
3770;DHT22;1900;48.890;9.190;2023-06-26T10:09:07;34.70;43.20
3770;DHT22;1900;48.890;9.190;2023-06-26T10:12:06;34.80;43.90
3770;DHT22;1900;48.890;9.190;2023-06-26T10:14:37;34.90;43.30
3770;DHT22;1900;48.890;9.190;2023-06-26T10:17:05;35.00;43.30
3770;DHT22;1900;48.890;9.190;2023-06-26T10:19:33;35.10;43.40
3770;DHT22;1900;48.890;9.190;2023-06-26T10:22:02;35.10;43.40
3770;DHT22;1900;48.890;9.190;2023-06-26T10:24:32;35.20;43.30
3770;DHT22;1900;48.890;9.190;2023-06-26T10:27:16;35.30;43.40
3770;DHT22;1900;48.890;9.190;2023-06-26T10:29:47;35.30;43.30
3770;DHT22;1900;48.890;9.190;2023-06-26T10:32:14;35.40;43.40
3770;DHT22;1900;48.890;9.190;2023-06-26T10:34:41;35.50;43.40
3770;DHT22;1900;48.890;9.190;2023-06-26T10:37:07;35.50;43.10
3770;DHT22;1900;48.890;9.190;2023-06-26T10:39:53;35.60;43.00
3770;DHT22;1900;48.890;9.190;2023-06-26T10:42:35;35.60;42.90
3770;DHT22;1900;48.890;9.190;2023-06-26T10:45:27;35.70;42.80
3770;DHT22;1900;48.890;9.190;2023-06-26T10:47:53;35.70;42.80
3770;DHT22;1900;48.890;9.190;2023-06-26T10:50:30;35.70;42.80
3770;DHT22;1900;48.890;9.190;2023-06-26T10:55:50;35.80;42.90
3770;DHT22;1900;48.890;9.190;2023-06-26T10:58:32;35.90;42.90
3770;DHT22;1900;48.890;9.190;2023-06-26T11:03:37;36.00;42.90
3770;DHT22;1900;48.890;9.190;2023-06-26T11:06:12;36.00;42.90
3770;DHT22;1900;48.890;9.190;2023-06-26T11:14:25;36.10;42.90
3770;DHT22;1900;48.890;9.190;2023-06-26T11:16:52;36.10;42.60
3770;DHT22;1900;48.890;9.190;2023-06-26T11:19:19;36.10;42.70
3770;DHT22;1900;48.890;9.190;2023-06-26T11:21:45;36.20;42.90
3770;DHT22;1900;48.890;9.190;2023-06-26T11:24:12;36.20;43.00
3770;DHT22;1900;48.890;9.190;2023-06-26T11:26:39;36.30;43.10
3770;DHT22;1900;48.890;9.190;2023-06-26T11:29:06;36.30;43.20
3770;DHT22;1900;48.890;9.190;2023-06-26T11:31:36;36.40;43.30
3770;DHT22;1900;48.890;9.190;2023-06-26T11:34:05;36.50;43.30
3770;DHT22;1900;48.890;9.190;2023-06-26T11:36:32;36.60;43.30
3770;DHT22;1900;48.890;9.190;2023-06-26T11:39:03;36.60;43.20
3770;DHT22;1900;48.890;9.190;2023-06-26T11:41:30;36.70;43.40
3770;DHT22;1900;48.890;9.190;2023-06-26T11:44:00;36.70;43.80
3770;DHT22;1900;48.890;9.190;2023-06-26T11:46:25;36.80;43.10
3770;DHT22;1900;48.890;9.190;2023-06-26T11:48:52;36.80;43.20
3770;DHT22;1900;48.890;9.190;2023-06-26T11:51:17;36.90;43.30
3770;DHT22;1900;48.890;9.190;2023-06-26T11:53:45;36.90;43.00
3770;DHT22;1900;48.890;9.190;2023-06-26T11:56:12;36.90;42.90
3770;DHT22;1900;48.890;9.190;2023-06-26T11:58:58;36.90;42.90
3770;DHT22;1900;48.890;9.190;2023-06-26T12:01:30;36.80;42.90
3770;DHT22;1900;48.890;9.190;2023-06-26T12:04:00;36.80;43.10
3770;DHT22;1900;48.890;9.190;2023-06-26T12:06:28;36.80;43.30
3770;DHT22;1900;48.890;9.190;2023-06-26T12:08:54;36.80;42.80
3770;DHT22;1900;48.890;9.190;2023-06-26T12:11:21;36.80;43.00
3770;DHT22;1900;48.890;9.190;2023-06-26T12:13:48;36.80;43.00
3770;DHT22;1900;48.890;9.190;2023-06-26T12:16:14;36.80;43.00
3770;DHT22;1900;48.890;9.190;2023-06-26T12:18:40;36.80;43.10
3770;DHT22;1900;48.890;9.190;2023-06-26T12:21:06;36.90;43.30
3770;DHT22;1900;48.890;9.190;2023-06-26T12:23:41;36.90;43.40
3770;DHT22;1900;48.890;9.190;2023-06-26T12:26:20;37.00;43.30
3770;DHT22;1900;48.890;9.190;2023-06-26T12:28:46;37.00;43.30
3770;DHT22;1900;48.890;9.190;2023-06-26T12:31:15;37.10;43.50
3770;DHT22;1900;48.890;9.190;2023-06-26T12:33:44;37.20;43.60
3770;DHT22;1900;48.890;9.190;2023-06-26T12:36:11;37.20;43.60
3770;DHT22;1900;48.890;9.190;2023-06-26T12:38:37;37.30;43.70
3770;DHT22;1900;48.890;9.190;2023-06-26T12:41:03;37.40;43.80
3770;DHT22;1900;48.890;9.190;2023-06-26T12:43:29;37.50;43.90
3770;DHT22;1900;48.890;9.190;2023-06-26T12:45:55;37.60;43.70
3770;DHT22;1900;48.890;9.190;2023-06-26T12:48:35;37.70;43.70
3770;DHT22;1900;48.890;9.190;2023-06-26T12:51:09;37.80;43.80
3770;DHT22;1900;48.890;9.190;2023-06-26T12:53:35;37.90;44.20
3770;DHT22;1900;48.890;9.190;2023-06-26T12:56:00;38.10;43.40
3770;DHT22;1900;48.890;9.190;2023-06-26T12:58:26;38.10;43.40
3770;DHT22;1900;48.890;9.190;2023-06-26T13:00:52;38.10;43.10
3770;DHT22;1900;48.890;9.190;2023-06-26T13:03:19;38.20;43.30
3770;DHT22;1900;48.890;9.190;2023-06-26T13:05:46;38.20;43.10
3770;DHT22;1900;48.890;9.190;2023-06-26T13:08:12;38.30;43.30
3770;DHT22;1900;48.890;9.190;2023-06-26T13:10:38;38.30;42.40
3770;DHT22;1900;48.890;9.190;2023-06-26T13:13:05;38.40;42.50
3770;DHT22;1900;48.890;9.190;2023-06-26T13:15:31;38.40;42.30
3770;DHT22;1900;48.890;9.190;2023-06-26T13:17:56;38.40;42.40
3770;DHT22;1900;48.890;9.190;2023-06-26T13:20:22;38.40;42.20
3770;DHT22;1900;48.890;9.190;2023-06-26T13:22:48;38.40;42.10
3770;DHT22;1900;48.890;9.190;2023-06-26T13:25:13;38.40;42.70
3770;DHT22;1900;48.890;9.190;2023-06-26T13:27:39;38.40;41.90
3770;DHT22;1900;48.890;9.190;2023-06-26T13:30:06;38.50;41.90
3770;DHT22;1900;48.890;9.190;2023-06-26T13:32:32;38.50;41.70
3770;DHT22;1900;48.890;9.190;2023-06-26T13:34:58;38.50;41.60
3770;DHT22;1900;48.890;9.190;2023-06-26T13:37:24;38.50;41.60
3770;DHT22;1900;48.890;9.190;2023-06-26T13:39:49;38.50;41.70
3770;DHT22;1900;48.890;9.190;2023-06-26T13:42:17;38.60;41.80
3770;DHT22;1900;48.890;9.190;2023-06-26T13:44:43;38.50;41.80
3770;DHT22;1900;48.890;9.190;2023-06-26T13:47:12;38.60;41.90
3770;DHT22;1900;48.890;9.190;2023-06-26T13:49:38;38.70;42.00
3770;DHT22;1900;48.890;9.190;2023-06-26T13:52:05;38.70;41.70
3770;DHT22;1900;48.890;9.190;2023-06-26T13:54:30;38.70;41.70
3770;DHT22;1900;48.890;9.190;2023-06-26T13:56:56;38.80;42.00
3770;DHT22;1900;48.890;9.190;2023-06-26T13:59:22;38.90;41.50
3770;DHT22;1900;48.890;9.190;2023-06-26T14:01:48;38.80;41.20
3770;DHT22;1900;48.890;9.190;2023-06-26T14:04:13;38.90;41.20
3770;DHT22;1900;48.890;9.190;2023-06-26T14:06:39;38.90;40.20
3770;DHT22;1900;48.890;9.190;2023-06-26T14:09:04;38.80;39.10
3770;DHT22;1900;48.890;9.190;2023-06-26T14:11:30;38.80;39.80
3770;DHT22;1900;48.890;9.190;2023-06-26T14:13:57;38.70;39.90
3770;DHT22;1900;48.890;9.190;2023-06-26T14:16:24;38.70;40.30
3770;DHT22;1900;48.890;9.190;2023-06-26T14:18:51;38.70;40.20
3770;DHT22;1900;48.890;9.190;2023-06-26T14:21:17;38.70;40.30
3770;DHT22;1900;48.890;9.190;2023-06-26T14:23:42;38.70;40.00
3770;DHT22;1900;48.890;9.190;2023-06-26T14:26:08;38.70;39.40
3770;DHT22;1900;48.890;9.190;2023-06-26T14:28:34;38.60;39.40
3770;DHT22;1900;48.890;9.190;2023-06-26T14:30:59;38.60;39.60
3770;DHT22;1900;48.890;9.190;2023-06-26T14:33:25;38.60;39.50
3770;DHT22;1900;48.890;9.190;2023-06-26T14:35:51;38.50;39.50
3770;DHT22;1900;48.890;9.190;2023-06-26T14:38:17;38.50;39.50
3770;DHT22;1900;48.890;9.190;2023-06-26T14:40:42;38.40;39.50
3770;DHT22;1900;48.890;9.190;2023-06-26T14:43:08;38.40;38.70
3770;DHT22;1900;48.890;9.190;2023-06-26T14:45:34;38.30;38.90
3770;DHT22;1900;48.890;9.190;2023-06-26T14:47:59;38.30;39.20
3770;DHT22;1900;48.890;9.190;2023-06-26T14:50:25;38.30;39.50
3770;DHT22;1900;48.890;9.190;2023-06-26T14:52:51;38.30;39.70
3770;DHT22;1900;48.890;9.190;2023-06-26T14:55:16;38.20;38.90
3770;DHT22;1900;48.890;9.190;2023-06-26T14:57:42;38.20;39.20
3770;DHT22;1900;48.890;9.190;2023-06-26T15:00:08;38.20;39.20
3770;DHT22;1900;48.890;9.190;2023-06-26T15:02:34;38.10;39.00
3770;DHT22;1900;48.890;9.190;2023-06-26T15:05:00;38.00;38.50
3770;DHT22;1900;48.890;9.190;2023-06-26T15:07:25;38.00;38.70
3770;DHT22;1900;48.890;9.190;2023-06-26T15:09:51;37.90;38.90
3770;DHT22;1900;48.890;9.190;2023-06-26T15:12:17;37.90;39.20
3770;DHT22;1900;48.890;9.190;2023-06-26T15:14:42;37.80;39.20
3770;DHT22;1900;48.890;9.190;2023-06-26T15:17:08;37.80;39.20
3770;DHT22;1900;48.890;9.190;2023-06-26T15:19:34;37.80;39.10
3770;DHT22;1900;48.890;9.190;2023-06-26T15:22:01;37.80;38.80
3770;DHT22;1900;48.890;9.190;2023-06-26T15:24:26;37.70;38.20
3770;DHT22;1900;48.890;9.190;2023-06-26T15:26:52;37.50;38.40
3770;DHT22;1900;48.890;9.190;2023-06-26T15:29:18;37.40;38.30
3770;DHT22;1900;48.890;9.190;2023-06-26T15:31:44;37.30;38.10
3770;DHT22;1900;48.890;9.190;2023-06-26T15:34:09;37.20;38.30
3770;DHT22;1900;48.890;9.190;2023-06-26T15:36:35;37.10;38.10
3770;DHT22;1900;48.890;9.190;2023-06-26T15:39:01;37.00;38.10
3770;DHT22;1900;48.890;9.190;2023-06-26T15:41:27;36.90;38.20
3770;DHT22;1900;48.890;9.190;2023-06-26T15:43:54;36.80;38.20
3770;DHT22;1900;48.890;9.190;2023-06-26T15:46:20;36.70;38.10
3770;DHT22;1900;48.890;9.190;2023-06-26T15:48:46;36.60;37.40
3770;DHT22;1900;48.890;9.190;2023-06-26T15:51:13;36.40;37.40
3770;DHT22;1900;48.890;9.190;2023-06-26T15:53:39;36.30;37.80
3770;DHT22;1900;48.890;9.190;2023-06-26T15:56:11;36.10;37.80
3770;DHT22;1900;48.890;9.190;2023-06-26T15:58:37;36.00;37.90
3770;DHT22;1900;48.890;9.190;2023-06-26T16:01:12;36.00;38.10
3770;DHT22;1900;48.890;9.190;2023-06-26T16:03:41;35.90;38.20
3770;DHT22;1900;48.890;9.190;2023-06-26T16:06:08;35.90;38.30
3770;DHT22;1900;48.890;9.190;2023-06-26T16:08:34;35.80;38.30
3770;DHT22;1900;48.890;9.190;2023-06-26T16:11:00;35.70;38.20
3770;DHT22;1900;48.890;9.190;2023-06-26T16:13:27;35.70;38.10
3770;DHT22;1900;48.890;9.190;2023-06-26T16:15:53;35.60;37.90
3770;DHT22;1900;48.890;9.190;2023-06-26T16:18:18;35.50;37.90
3770;DHT22;1900;48.890;9.190;2023-06-26T16:20:44;35.40;37.90
3770;DHT22;1900;48.890;9.190;2023-06-26T16:23:10;35.30;37.90
3770;DHT22;1900;48.890;9.190;2023-06-26T16:25:36;35.20;37.90